createdAt,value
2023-03-31T00:02:22.110Z,95595.94
2023-03-31T00:05:03.637Z,95597.68
2023-03-31T00:07:33.718Z,95600.48
2023-03-31T00:10:17.113Z,95601.69
2023-03-31T00:12:59.465Z,95595.13
2023-03-31T00:15:46.218Z,95595.83
2023-03-31T00:18:20.895Z,95597.95
2023-03-31T00:20:49.390Z,95593.94
2023-03-31T00:23:17.721Z,95594.98
2023-03-31T00:26:07.299Z,95592.70
2023-03-31T00:29:01.054Z,95590.19
2023-03-31T00:32:09.929Z,95580.15
2023-03-31T00:34:38.534Z,95581.96
2023-03-31T00:37:18.685Z,95575.15
2023-03-31T00:40:09.535Z,95569.80
2023-03-31T00:42:51.207Z,95559.95
2023-03-31T00:45:43.254Z,95548.60
2023-03-31T00:48:18.451Z,95546.25
2023-03-31T00:50:56.164Z,95535.48
2023-03-31T00:53:29.316Z,95531.73
2023-03-31T00:56:03.295Z,95527.57
2023-03-31T00:58:34.830Z,95520.92
2023-03-31T01:01:04.460Z,95516.73
2023-03-31T01:03:33.639Z,95509.95
2023-03-31T01:06:17.434Z,95504.35
2023-03-31T01:08:50.207Z,95494.14
2023-03-31T01:11:24.911Z,95488.75
2023-03-31T01:13:57.082Z,95478.10
2023-03-31T01:16:26.019Z,95469.11
2023-03-31T01:18:57.738Z,95464.14
2023-03-31T01:22:27.204Z,95464.80
2023-03-31T01:25:17.076Z,95459.83
2023-03-31T01:28:07.368Z,95454.41
2023-03-31T01:31:05.494Z,95450.90
2023-03-31T01:33:44.476Z,95447.04
2023-03-31T01:36:50.589Z,95444.11
2023-03-31T01:39:33.290Z,95436.50
2023-03-31T01:42:31.121Z,95436.11
2023-03-31T01:45:10.714Z,95439.23
2023-03-31T01:48:21.465Z,95441.11
2023-03-31T02:05:09.529Z,95429.16
2023-03-31T02:08:36.859Z,95430.80
2023-03-31T02:11:05.556Z,95422.45
2023-03-31T02:13:45.555Z,95418.34
2023-03-31T02:16:22.576Z,95413.93
2023-03-31T02:19:04.088Z,95409.00
2023-03-31T02:21:36.434Z,95405.83
2023-03-31T02:24:16.017Z,95399.45
2023-03-31T02:27:19.152Z,95395.55
2023-03-31T02:29:48.472Z,95399.67
2023-03-31T02:32:24.065Z,95401.69
2023-03-31T02:34:55.784Z,95401.55
2023-03-31T02:37:25.894Z,95395.09
2023-03-31T02:39:58.865Z,95391.58
2023-03-31T02:42:33.554Z,95386.42
2023-03-31T02:45:05.371Z,95384.08
2023-03-31T02:47:34.831Z,95379.25
2023-03-31T02:50:06.527Z,95378.29
2023-03-31T02:52:45.657Z,95374.39
2023-03-31T02:55:37.782Z,95374.41
2023-03-31T02:58:27.373Z,95377.92
2023-03-31T03:01:23.882Z,95374.35
2023-03-31T03:04:09.711Z,95370.91
2023-03-31T03:07:16.170Z,95386.36
2023-03-31T03:10:30.525Z,95370.44
2023-03-31T03:13:31.905Z,95377.73
2023-03-31T03:16:19.833Z,95378.79
2023-03-31T03:19:02.375Z,95381.60
2023-03-31T03:21:33.772Z,95382.98
2023-03-31T03:24:07.058Z,95380.05
2023-03-31T03:27:01.657Z,95385.38
2023-03-31T03:29:48.186Z,95389.04
2023-03-31T03:32:19.195Z,95391.08
2023-03-31T03:34:48.099Z,95392.70
2023-03-31T03:37:19.615Z,95391.88
2023-03-31T03:39:48.594Z,95396.01
2023-03-31T03:42:17.023Z,95395.42
2023-03-31T03:44:45.562Z,95394.17
2023-03-31T03:47:15.433Z,95399.30
2023-03-31T03:49:43.871Z,95401.48
2023-03-31T03:52:12.951Z,95403.33
2023-03-31T03:54:42.514Z,95401.67
2023-03-31T03:57:11.316Z,95405.81
2023-03-31T03:59:40.130Z,95403.33
2023-03-31T04:02:08.877Z,95399.67
2023-03-31T04:04:37.774Z,95403.88
2023-03-31T04:07:06.236Z,95396.23
2023-03-31T04:09:37.660Z,95384.23
2023-03-31T04:12:34.732Z,95374.29
2023-03-31T04:15:05.097Z,95366.38
2023-03-31T04:17:34.965Z,95357.12
2023-03-31T04:20:11.659Z,95351.17
2023-03-31T04:22:42.706Z,95349.81
2023-03-31T04:25:19.938Z,95346.56
2023-03-31T04:27:56.301Z,95344.07
2023-03-31T04:30:31.166Z,95344.06
2023-03-31T04:33:42.243Z,95340.86
2023-03-31T04:37:13.062Z,95335.86
2023-03-31T04:40:24.963Z,95339.64
2023-03-31T04:43:17.850Z,95334.56
2023-03-31T04:46:04.608Z,95328.11
2023-03-31T04:48:37.917Z,95330.70
2023-03-31T04:51:46.777Z,95324.74
2023-03-31T04:55:39.748Z,95322.48
2023-03-31T05:03:09.548Z,95317.83
2023-03-31T05:07:20.219Z,95321.27
2023-03-31T05:11:24.356Z,95323.16
2023-03-31T05:13:53.300Z,95323.86
2023-03-31T05:16:21.953Z,95321.86
2023-03-31T05:18:50.123Z,95323.67
2023-03-31T05:21:39.569Z,95323.83
2023-03-31T05:24:08.766Z,95323.30
2023-03-31T05:26:41.771Z,95323.89
2023-03-31T05:29:31.970Z,95328.20
2023-03-31T05:32:01.869Z,95332.67
2023-03-31T05:35:08.647Z,95331.80
2023-03-31T05:37:41.187Z,95330.40
2023-03-31T05:40:11.627Z,95332.37
2023-03-31T05:42:43.392Z,95332.50
2023-03-31T05:45:15.152Z,95331.66
2023-03-31T05:47:43.343Z,95335.99
2023-03-31T05:50:14.653Z,95339.30
2023-03-31T05:52:43.064Z,95340.57
2023-03-31T05:55:13.421Z,95340.41
2023-03-31T05:57:41.929Z,95342.51
2023-03-31T06:00:11.578Z,95340.85
2023-03-31T06:02:42.384Z,95343.11
2023-03-31T06:05:11.058Z,95341.51
2023-03-31T06:07:39.989Z,95338.31
2023-03-31T06:10:10.853Z,95339.55
2023-03-31T06:12:39.758Z,95339.37
2023-03-31T06:15:10.095Z,95340.95
2023-03-31T06:17:39.954Z,95338.16
2023-03-31T06:20:26.423Z,95339.18
2023-03-31T06:22:55.926Z,95335.25
2023-03-31T06:25:24.831Z,95331.96
2023-03-31T06:27:56.616Z,95331.86
2023-03-31T06:30:41.719Z,95327.04
2023-03-31T06:33:24.030Z,95325.68
2023-03-31T06:35:57.918Z,95325.48
2023-03-31T06:38:31.720Z,95331.20
2023-03-31T06:41:23.212Z,95335.37
2023-03-31T06:44:45.747Z,95340.85
2023-03-31T06:47:19.846Z,95338.40
2023-03-31T06:49:52.682Z,95336.94
2023-03-31T06:52:41.372Z,95335.35
2023-03-31T06:55:39.254Z,95337.33
2023-03-31T06:58:53.871Z,95337.67
2023-03-31T07:02:13.181Z,95340.95
2023-03-31T07:05:30.716Z,95336.17
2023-03-31T07:08:04.716Z,95333.00
2023-03-31T07:10:35.932Z,95333.77
2023-03-31T07:13:07.645Z,95330.38
2023-03-31T07:15:39.081Z,95330.94
2023-03-31T07:18:13.985Z,95325.83
2023-03-31T07:20:45.645Z,95322.66
2023-03-31T07:23:14.244Z,95325.05
2023-03-31T07:26:26.924Z,95322.41
2023-03-31T07:29:39.879Z,95326.39
2023-03-31T07:32:11.880Z,95332.00
2023-03-31T07:34:41.837Z,95335.90
2023-03-31T07:37:11.014Z,95334.66
2023-03-31T07:39:41.362Z,95339.64
2023-03-31T07:42:10.740Z,95342.45
2023-03-31T07:44:40.055Z,95344.10
2023-03-31T07:47:09.384Z,95342.28
2023-03-31T07:49:38.528Z,95341.70
2023-03-31T07:52:07.793Z,95341.70
2023-03-31T07:54:39.203Z,95335.42
2023-03-31T07:57:09.579Z,95337.80
2023-03-31T07:59:39.251Z,95338.02
2023-03-31T08:02:08.614Z,95336.54
2023-03-31T08:04:37.464Z,95339.00
2023-03-31T08:07:08.118Z,95339.13
2023-03-31T08:09:46.933Z,95337.98
2023-03-31T08:12:18.019Z,95339.73
2023-03-31T08:14:54.070Z,95339.28
2023-03-31T08:17:25.220Z,95337.56
2023-03-31T08:19:56.108Z,95337.36
2023-03-31T08:22:28.779Z,95335.48
2023-03-31T08:25:15.397Z,95337.53
2023-03-31T08:27:44.895Z,95335.48
2023-03-31T08:30:14.672Z,95342.42
2023-03-31T08:32:43.541Z,95340.06
2023-03-31T08:35:12.184Z,95344.45
2023-03-31T08:37:41.391Z,95346.46
2023-03-31T08:40:19.749Z,95347.24
2023-03-31T08:43:06.296Z,95343.70
2023-03-31T08:45:44.556Z,95336.69
2023-03-31T08:48:25.773Z,95340.41
2023-03-31T08:51:01.677Z,95340.41
2023-03-31T08:53:33.312Z,95338.27
2023-03-31T08:56:04.925Z,95328.23
2023-03-31T08:58:42.810Z,95327.36
2023-03-31T09:01:27.382Z,95327.59
2023-03-31T09:04:08.320Z,95327.48
2023-03-31T09:06:44.041Z,95321.62
2023-03-31T09:09:42.068Z,95321.42
2023-03-31T09:12:16.712Z,95322.70
2023-03-31T09:14:54.322Z,95323.45
2023-03-31T09:17:29.578Z,95327.42
2023-03-31T09:20:08.367Z,95325.23
2023-03-31T09:22:45.475Z,95330.53
2023-03-31T09:25:31.596Z,95324.50
2023-03-31T09:28:02.650Z,95326.27
2023-03-31T09:30:34.304Z,95324.77
2023-03-31T09:33:15.746Z,95325.77
2023-03-31T09:35:46.469Z,95325.55
2023-03-31T09:38:16.465Z,95326.67
2023-03-31T09:40:45.153Z,95321.95
2023-03-31T09:43:22.090Z,95322.07
2023-03-31T09:46:08.680Z,95321.75
2023-03-31T09:48:54.920Z,95320.39
2023-03-31T09:51:30.653Z,95322.55
2023-03-31T09:54:09.676Z,95315.11
2023-03-31T09:56:52.917Z,95313.42
2023-03-31T09:59:24.249Z,95309.44
2023-03-31T10:01:59.006Z,95306.91
2023-03-31T10:04:48.365Z,95297.72
2023-03-31T10:07:23.636Z,95292.70
2023-03-31T10:09:55.466Z,95285.13
2023-03-31T10:12:28.653Z,95283.48
2023-03-31T10:15:20.073Z,95284.81
2023-03-31T10:20:49.053Z,95278.40
2023-03-31T10:23:19.210Z,95278.60
2023-03-31T10:25:48.126Z,95272.84
2023-03-31T10:28:21.057Z,95268.89
2023-03-31T10:30:53.018Z,95265.75
2023-03-31T10:33:27.728Z,95265.74
2023-03-31T10:35:59.683Z,95268.51
2023-03-31T10:38:40.931Z,95265.20
2023-03-31T10:41:31.366Z,95259.20
2023-03-31T10:44:04.839Z,95257.73
2023-03-31T10:46:46.678Z,95260.13
2023-03-31T10:49:39.609Z,95256.08
2023-03-31T10:52:20.893Z,95248.69
2023-03-31T10:54:55.183Z,95240.94
2023-03-31T10:57:58.219Z,95237.96
2023-03-31T11:00:51.743Z,95239.80
2023-03-31T11:03:32.391Z,95233.98
2023-03-31T11:06:13.193Z,95232.46
2023-03-31T11:08:58.770Z,95233.49
2023-03-31T11:11:41.774Z,95229.80
2023-03-31T11:14:22.979Z,95233.42
2023-03-31T11:17:56.205Z,95232.39
2023-03-31T11:21:01.965Z,95227.45
2023-03-31T11:23:43.330Z,95216.13
2023-03-31T11:26:17.368Z,95213.59
2023-03-31T11:29:25.492Z,95216.87
2023-03-31T11:32:03.913Z,95212.84
2023-03-31T11:34:50.815Z,95215.39
2023-03-31T11:37:25.291Z,95221.79
2023-03-31T11:40:16.892Z,95215.38
2023-03-31T11:42:57.416Z,95211.25
2023-03-31T11:45:34.808Z,95210.20
2023-03-31T11:48:15.036Z,95213.27
2023-03-31T11:50:47.726Z,95201.05
2023-03-31T11:53:21.224Z,95196.67
2023-03-31T11:55:54.315Z,95191.52
2023-03-31T11:58:45.685Z,95192.52
2023-03-31T12:01:18.326Z,95187.01
2023-03-31T12:04:15.884Z,95189.58
2023-03-31T12:06:47.998Z,95182.48
2023-03-31T12:09:24.041Z,95176.73
2023-03-31T12:12:14.514Z,95169.77
2023-03-31T12:15:15.899Z,95162.40
2023-03-31T12:18:12.994Z,95165.48
2023-03-31T12:20:48.133Z,95166.23
2023-03-31T12:23:24.654Z,95164.64
2023-03-31T12:26:12.923Z,95166.58
2023-03-31T12:28:49.932Z,95166.77
2023-03-31T12:31:25.811Z,95159.52
2023-03-31T12:34:24.732Z,95156.33
2023-03-31T12:37:34.704Z,95150.45
2023-03-31T12:40:16.730Z,95146.81
2023-03-31T12:42:52.658Z,95144.89
2023-03-31T12:45:34.713Z,95145.83
2023-03-31T12:48:27.843Z,95140.13
2023-03-31T12:51:16.308Z,95139.52
2023-03-31T12:54:04.017Z,95142.92
2023-03-31T12:57:00.909Z,95140.11
2023-03-31T12:59:42.141Z,95138.44
2023-03-31T13:02:25.693Z,95137.52
2023-03-31T13:04:54.870Z,95126.98
2023-03-31T13:07:29.147Z,95125.33
2023-03-31T13:10:22.047Z,95125.58
2023-03-31T13:13:15.180Z,95120.45
2023-03-31T13:16:10.005Z,95115.48
2023-03-31T13:18:43.934Z,95110.35
2023-03-31T13:21:13.128Z,95113.05
2023-03-31T13:23:46.781Z,95108.58
2023-03-31T13:26:46.795Z,95109.95
2023-03-31T13:29:28.867Z,95109.32
2023-03-31T13:32:00.501Z,95104.13
2023-03-31T13:34:34.174Z,95100.71
2023-03-31T13:37:24.267Z,95099.45
2023-03-31T13:40:15.201Z,95104.63
2023-03-31T13:43:09.246Z,95099.91
2023-03-31T13:45:45.162Z,95095.77
2023-03-31T13:48:36.965Z,95095.59
2023-03-31T13:51:19.599Z,95095.73
2023-03-31T13:54:00.373Z,95100.35
2023-03-31T13:57:20.241Z,95101.11
2023-03-31T14:00:21.764Z,95097.34
2023-03-31T14:03:05.290Z,95094.60
2023-03-31T14:05:45.077Z,95092.58
2023-03-31T14:08:31.129Z,95093.81
2023-03-31T14:11:23.324Z,95092.45
2023-03-31T14:14:13.599Z,95088.80
2023-03-31T14:16:48.773Z,95089.46
2023-03-31T14:19:54.874Z,95088.27
2023-03-31T14:22:41.957Z,95084.63
2023-03-31T14:25:28.758Z,95080.89
2023-03-31T14:27:58.905Z,95078.16
2023-03-31T14:30:47.341Z,95077.86
2023-03-31T14:33:22.730Z,95077.23
2023-03-31T14:36:08.437Z,95075.98
2023-03-31T14:38:37.822Z,95078.24
2023-03-31T14:41:06.434Z,95080.86
2023-03-31T14:43:40.572Z,95081.84
2023-03-31T14:46:10.533Z,95085.13
2023-03-31T14:48:47.319Z,95085.52
2023-03-31T14:51:18.125Z,95084.77
2023-03-31T14:53:46.549Z,95079.96
2023-03-31T14:56:20.844Z,95084.49
2023-03-31T14:58:53.179Z,95088.11
2023-03-31T15:01:28.364Z,95092.05
2023-03-31T15:03:57.115Z,95088.03
2023-03-31T15:06:26.648Z,95085.95
2023-03-31T15:08:58.707Z,95082.30
2023-03-31T15:11:28.931Z,95087.69
2023-03-31T15:14:04.988Z,95087.16
2023-03-31T15:16:47.106Z,95087.15
2023-03-31T15:19:16.371Z,95090.40
2023-03-31T15:21:46.400Z,95087.42
2023-03-31T15:24:17.560Z,95088.93
2023-03-31T15:26:52.289Z,95090.90
2023-03-31T15:29:26.987Z,95093.08
2023-03-31T15:31:58.483Z,95088.48
2023-03-31T15:34:33.491Z,95086.20
2023-03-31T15:37:01.985Z,95083.96
2023-03-31T15:39:33.479Z,95082.54
2023-03-31T15:42:07.675Z,95077.19
2023-03-31T15:44:44.011Z,95070.67
2023-03-31T15:47:19.503Z,95071.61
2023-03-31T15:50:10.172Z,95066.92
2023-03-31T15:52:46.343Z,95054.27
2023-03-31T15:55:24.299Z,95045.27
2023-03-31T15:57:53.658Z,95040.08
2023-03-31T16:00:38.545Z,95037.45
2023-03-31T16:03:26.803Z,95035.36
2023-03-31T16:05:58.037Z,95038.05
2023-03-31T16:11:49.208Z,95044.14
2023-03-31T16:13:34.790Z,95040.56
2023-03-31T16:14:29.746Z,95048.11
2023-03-31T16:17:06.476Z,95046.67
2023-03-31T16:19:49.920Z,95044.25
2023-03-31T16:22:26.210Z,95043.50
2023-03-31T16:25:00.734Z,95046.30
2023-03-31T16:27:28.978Z,95042.45
2023-03-31T16:30:12.676Z,95047.05
2023-03-31T16:33:03.041Z,95054.48
2023-03-31T16:35:40.105Z,95056.33
2023-03-31T16:38:11.277Z,95053.48
2023-03-31T16:40:43.364Z,95054.15
2023-03-31T16:43:20.250Z,95051.54
2023-03-31T16:45:49.433Z,95051.86
2023-03-31T16:48:19.857Z,95054.73
2023-03-31T16:50:49.872Z,95058.12
2023-03-31T16:53:22.486Z,95061.60
2023-03-31T16:55:51.235Z,95058.95
2023-03-31T16:58:19.629Z,95058.48
2023-03-31T17:00:48.228Z,95056.63
2023-03-31T17:03:17.038Z,95058.08
2023-03-31T17:05:53.274Z,95054.67
2023-03-31T17:08:23.744Z,95053.39
2023-03-31T17:10:56.253Z,95051.23
2023-03-31T17:13:24.273Z,95053.04
2023-03-31T17:16:01.422Z,95057.69
2023-03-31T17:18:36.814Z,95053.96
2023-03-31T17:21:10.209Z,95048.75
2023-03-31T17:23:39.527Z,95045.17
2023-03-31T17:26:15.590Z,95044.95
2023-03-31T17:28:44.090Z,95038.23
2023-03-31T17:31:18.848Z,95037.13
2023-03-31T17:33:47.808Z,95026.30
2023-03-31T17:36:16.860Z,95019.70
2023-03-31T17:38:45.958Z,95017.80
2023-03-31T17:41:14.397Z,95018.69
2023-03-31T17:43:46.953Z,95017.04
2023-03-31T17:46:15.662Z,95017.61
2023-03-31T17:48:44.840Z,95016.00
2023-03-31T17:51:16.270Z,95019.89
2023-03-31T17:53:47.034Z,95015.12
2023-03-31T17:56:16.550Z,95012.38
2023-03-31T17:58:46.448Z,95006.14
2023-03-31T18:01:15.092Z,95005.09
2023-03-31T18:03:45.154Z,95002.37
2023-03-31T18:06:14.942Z,95004.96
2023-03-31T18:08:43.006Z,95004.60
2023-03-31T18:11:11.969Z,95008.92
2023-03-31T18:13:40.676Z,95003.63
2023-03-31T18:16:10.195Z,95002.83
2023-03-31T18:18:39.557Z,95001.05
2023-03-31T18:21:10.366Z,94996.22
2023-03-31T18:23:39.421Z,94996.00
2023-03-31T18:26:09.652Z,94992.43
2023-03-31T18:28:40.261Z,94989.39
2023-03-31T18:31:09.475Z,94991.03
2023-03-31T18:33:37.786Z,94995.94
2023-03-31T18:36:07.584Z,95001.04
2023-03-31T18:38:37.201Z,94997.73
2023-03-31T18:41:05.986Z,94995.29
2023-03-31T18:43:34.645Z,94997.80
2023-03-31T18:46:03.103Z,94995.90
2023-03-31T18:48:32.464Z,94992.84
2023-03-31T18:51:00.942Z,94990.46
2023-03-31T18:53:31.460Z,94984.27
2023-03-31T18:56:00.471Z,94983.05
2023-03-31T18:58:30.512Z,94979.79
2023-03-31T19:00:59.650Z,94974.77
2023-03-31T19:03:28.686Z,94973.13
2023-03-31T19:06:02.752Z,94975.93
2023-03-31T19:08:31.968Z,94970.69
2023-03-31T19:11:09.966Z,94972.23
2023-03-31T19:13:39.314Z,94965.54
2023-03-31T19:16:07.618Z,94964.43
2023-03-31T19:18:36.691Z,94968.88
2023-03-31T19:21:05.221Z,94969.30
2023-03-31T19:23:34.338Z,94960.87
2023-03-31T19:26:03.222Z,94958.90
2023-03-31T19:28:31.740Z,94956.97
2023-03-31T19:31:04.462Z,94961.33
2023-03-31T19:33:33.633Z,94959.86
2023-03-31T19:36:02.936Z,94956.19
2023-03-31T19:38:36.692Z,94959.93
2023-03-31T19:41:06.286Z,94951.87
2023-03-31T19:43:34.511Z,94950.99
2023-03-31T19:46:03.364Z,94946.98
2023-03-31T19:48:34.010Z,94945.15
2023-03-31T19:51:08.647Z,94941.70
2023-03-31T19:53:38.349Z,94938.95
2023-03-31T19:56:10.358Z,94936.45
2023-03-31T19:58:40.230Z,94933.46
2023-03-31T20:01:16.000Z,94931.19
2023-03-31T20:03:44.759Z,94933.96
2023-03-31T20:06:14.981Z,94926.90
2023-03-31T20:08:44.145Z,94921.02
2023-03-31T20:11:15.729Z,94919.21
2023-03-31T20:13:47.927Z,94916.95
2023-03-31T20:16:20.382Z,94914.17
2023-03-31T20:18:58.930Z,94908.23
2023-03-31T20:21:30.415Z,94902.04
2023-03-31T20:23:59.596Z,94900.11
2023-03-31T20:26:30.185Z,94894.74
2023-03-31T20:29:02.828Z,94892.73
2023-03-31T20:31:36.614Z,94892.00
2023-03-31T20:34:12.587Z,94888.27
2023-03-31T20:36:44.467Z,94880.63
2023-03-31T20:39:15.311Z,94882.11
2023-03-31T20:41:45.101Z,94882.14
2023-03-31T20:44:16.038Z,94880.25
2023-03-31T20:46:45.773Z,94878.42
2023-03-31T20:49:15.051Z,94881.08
2023-03-31T20:51:45.431Z,94876.35
2023-03-31T20:54:14.531Z,94875.77
2023-03-31T20:56:44.296Z,94871.11
2023-03-31T20:59:15.846Z,94871.90
2023-03-31T21:01:47.471Z,94873.54
2023-03-31T21:04:17.123Z,94866.80
2023-03-31T21:06:47.763Z,94864.23
2023-03-31T21:09:16.837Z,94864.69
2023-03-31T21:11:46.188Z,94858.39
2023-03-31T21:14:16.573Z,94850.13
2023-03-31T21:16:45.408Z,94849.36
2023-03-31T21:19:14.322Z,94846.58
2023-03-31T21:21:43.560Z,94848.10
2023-03-31T21:24:12.897Z,94851.48
2023-03-31T21:26:41.185Z,94847.92
2023-03-31T21:29:11.572Z,94842.94
2023-03-31T21:31:42.219Z,94839.41
2023-03-31T21:34:11.365Z,94829.59
2023-03-31T21:36:40.093Z,94821.05
2023-03-31T21:39:09.910Z,94810.60
2023-03-31T21:41:40.841Z,94804.80
2023-03-31T21:44:13.623Z,94796.91
2023-03-31T21:46:45.192Z,94795.59
2023-03-31T21:49:16.702Z,94792.96
2023-03-31T21:51:46.293Z,94791.30
2023-03-31T21:54:14.459Z,94793.02
2023-03-31T21:56:42.570Z,94789.60
2023-03-31T21:59:11.182Z,94787.60
2023-03-31T22:01:39.686Z,94788.06
2023-03-31T22:04:09.447Z,94785.33
2023-03-31T22:06:53.650Z,94780.96
2023-03-31T22:09:21.904Z,94783.42
2023-03-31T22:11:51.570Z,94781.95
2023-03-31T22:14:19.739Z,94780.61
2023-03-31T22:16:47.835Z,94781.54
2023-03-31T22:19:17.140Z,94782.63
2023-03-31T22:21:47.379Z,94783.19
2023-03-31T22:24:15.883Z,94780.11
2023-03-31T22:26:44.000Z,94776.36
2023-03-31T22:29:16.375Z,94777.13
2023-03-31T22:31:44.633Z,94778.43
2023-03-31T22:34:13.565Z,94784.18
2023-03-31T22:36:42.128Z,94784.06
2023-03-31T22:39:10.527Z,94780.17
2023-03-31T22:41:38.637Z,94779.48
2023-03-31T22:44:07.326Z,94778.27
2023-03-31T22:46:36.422Z,94779.04
2023-03-31T22:49:05.183Z,94779.06
2023-03-31T22:51:36.143Z,94780.20
2023-03-31T22:54:04.213Z,94781.48
2023-03-31T22:56:32.406Z,94782.02
2023-03-31T22:59:03.213Z,94785.58
2023-03-31T23:01:31.530Z,94783.27
2023-03-31T23:04:01.148Z,94779.23
2023-03-31T23:06:32.743Z,94781.71
2023-03-31T23:09:02.471Z,94780.42
2023-03-31T23:11:31.698Z,94773.40
2023-03-31T23:13:59.848Z,94770.46
2023-03-31T23:16:27.954Z,94768.69
2023-03-31T23:18:56.163Z,94757.58
2023-03-31T23:21:27.488Z,94753.52
2023-03-31T23:23:58.782Z,94751.02
2023-03-31T23:26:28.000Z,94742.10
2023-03-31T23:28:56.590Z,94736.67
2023-03-31T23:31:27.706Z,94735.83
2023-03-31T23:33:58.238Z,94732.29
2023-03-31T23:36:26.822Z,94724.30
2023-03-31T23:38:57.768Z,94719.10
2023-03-31T23:41:26.545Z,94713.35
2023-03-31T23:43:55.977Z,94712.30
2023-03-31T23:46:26.260Z,94704.38
2023-03-31T23:48:54.638Z,94700.11
2023-03-31T23:51:23.828Z,94692.09
2023-03-31T23:53:52.481Z,94691.09
2023-03-31T23:56:20.626Z,94690.65
2023-03-31T23:58:48.833Z,94685.23
